This is the latest recevied weather packets stored in our database for station/object n7wwk-1. If no packets are shown the sender has not sent any weather packets the latest 10 day(s).
| Time | Temp. | Humidity | Pressure | Rain* | Wind** | Luminosity | Snow |
|---|---|---|---|---|---|---|---|
| 1777673405 | 28.89° C | 63% | 1007 hPa | 0 mm | - | 32 W/m² | - |
| 1777672205 | 29.44° C | 61% | 1007.1 hPa | 0 mm | - | 66 W/m² | - |
| 1777669205 | 30° C | 56% | 1006.9 hPa | 0 mm | - | 376 W/m² | - |
| 1777668605 | 30.56° C | 56% | 1006.9 hPa | 0 mm | - | 249 W/m² | - |
| 1777667405 | 31.67° C | 55% | 1007 hPa | 0 mm | - | 358 W/m² | - |
| 1777664405 | 33.89° C | 44% | 1007.5 hPa | 0 mm | - | 604 W/m² | - |
| 1777663805 | 32.22° C | 47% | 1007.9 hPa | 0 mm | - | 705 W/m² | - |
| 1777659005 | 30.56° C | 51% | 1009 hPa | 0 mm | - | 594 W/m² | - |
| 1777658405 | 30° C | 54% | 1009 hPa | 0 mm | - | 349 W/m² | - |
| 1777650605 | 28.89° C | 58% | 1010.5 hPa | 0 mm | - | 696 W/m² | - |
| 1777645805 | 26.11° C | 69% | 1010.8 hPa | 0 mm | - | 603 W/m² | - |
| 1777644134 | 25° C | 77% | 1010.7 hPa | 0 mm | - | 200 W/m² | - |
| 1777643405 | 24.44° C | 78% | 1010.2 hPa | 0 mm | - | 222 W/m² | - |
| 1777639337 | 22.22° C | 86% | 1009.9 hPa | 0 mm | - | 125 W/m² | - |
| 1777638605 | 22.22° C | 88% | 1010.2 hPa | 0 mm | - | 100 W/m² | - |
| 1777638005 | 21.67° C | 89% | 1009.9 hPa | 0 mm | - | 76 W/m² | - |
| 1777636805 | 21.67° C | 90% | 1009.8 hPa | 0 mm | - | 58 W/m² | - |
| 1777633205 | 20.56° C | 94% | 1009.7 hPa | 0 mm | - | 4 W/m² | - |
| 1777632138 | 20.56° C | 95% | 1009 hPa | 0 mm | - | 0 W/m² | - |
| 1777631534 | 20.56° C | 96% | 1009 hPa | 0 mm | - | 0 W/m² | - |
| 1777630205 | 21.11° C | 97% | 1008.7 hPa | 0 mm | - | 0 W/m² | - |
| 1777629605 | 21.11° C | 97% | 1008.5 hPa | 0 mm | - | 0 W/m² | - |
| 1777624805 | 21.67° C | 96% | 1008.6 hPa | 0 mm | - | 0 W/m² | - |
| 1777624205 | 21.67° C | 96% | 1008.8 hPa | 0 mm | - | 0 W/m² | - |
| 1777623605 | 21.67° C | 96% | 1008.7 hPa | 0 mm | - | 0 W/m² | - |
* Rain latest hour (hover to see other rain measurements)
** Current wind speed in m/s (hover to see current wind gust speed)